createdAt,value
2019-05-07T00:02:16.092Z,5.31
2019-05-07T00:04:46.457Z,5.23
2019-05-07T00:07:16.715Z,5.19
2019-05-07T00:37:07.299Z,4.71
2019-05-07T00:40:15.508Z,4.68
2019-05-07T00:43:09.211Z,4.74
2019-05-07T00:46:22.595Z,4.71
2019-05-07T00:49:02.261Z,4.68
2019-05-07T00:51:52.248Z,4.61
2019-05-07T00:54:42.320Z,4.56
2019-05-07T00:57:34.186Z,4.51
2019-05-07T01:00:06.954Z,3.73
2019-05-07T01:03:02.911Z,4.44
2019-05-07T01:05:52.753Z,4.40
2019-05-07T01:09:03.175Z,4.41
2019-05-07T01:11:35.240Z,4.42
2019-05-07T01:14:26.007Z,4.35
2019-05-07T01:16:56.238Z,4.31
2019-05-07T01:19:45.814Z,4.26
2019-05-07T01:22:35.082Z,4.28
2019-05-07T01:25:05.865Z,4.25
2019-05-07T01:27:40.089Z,4.20
2019-05-07T01:30:29.407Z,4.26
2019-05-07T01:36:02.316Z,4.09
2019-05-07T01:38:52.234Z,4.13
2019-05-07T01:41:42.075Z,4.09
2019-05-07T01:44:32.537Z,4.01
2019-05-07T01:47:03.741Z,3.92
2019-05-07T01:49:35.094Z,3.84
2019-05-07T01:54:55.409Z,3.86
2019-05-07T01:57:25.768Z,3.85
2019-05-07T01:59:56.538Z,3.80
2019-05-07T02:02:38.395Z,3.69
2019-05-07T02:05:27.775Z,3.62
2019-05-07T02:11:12.882Z,3.59
2019-05-07T02:14:02.452Z,3.59
2019-05-07T02:16:52.900Z,3.56
2019-05-07T02:19:43.050Z,3.52
2019-05-07T02:22:32.491Z,3.45
2019-05-07T02:25:22.263Z,3.44
2019-05-07T02:28:12.844Z,2.46
2019-05-07T02:31:04.137Z,3.38
2019-05-07T02:33:35.133Z,3.36
2019-05-07T02:39:33.264Z,3.35
2019-05-07T02:42:04.060Z,3.42
2019-05-07T02:45:13.324Z,3.23
2019-05-07T02:47:44.015Z,3.14
2019-05-07T02:53:43.118Z,2.98
2019-05-07T02:56:33.451Z,2.91
2019-05-07T02:59:44.026Z,2.85
2019-05-07T03:02:25.669Z,2.87
2019-05-07T03:05:06.915Z,2.84
2019-05-07T03:07:53.223Z,2.83
2019-05-07T03:10:34.619Z,2.76
2019-05-07T03:13:17.106Z,2.73
2019-05-07T03:15:58.512Z,2.72
2019-05-07T03:18:43.539Z,2.72
2019-05-07T03:21:23.915Z,2.78
2019-05-07T03:24:14.831Z,2.75
2019-05-07T03:26:46.452Z,2.68
2019-05-07T03:29:37.382Z,2.69
2019-05-07T03:32:27.806Z,2.74
2019-05-07T03:35:38.102Z,2.77
2019-05-07T03:38:27.519Z,2.81
2019-05-07T03:41:18.753Z,2.50
2019-05-07T03:43:53.437Z,2.84
2019-05-07T03:46:23.799Z,2.84
2019-05-07T03:48:54.354Z,2.87
2019-05-07T03:51:24.631Z,2.86
2019-05-07T03:53:54.886Z,2.88
2019-05-07T03:56:25.521Z,2.94
2019-05-07T03:59:14.945Z,2.94
2019-05-07T04:01:45.281Z,3.01
2019-05-07T04:04:16.473Z,3.14
2019-05-07T04:06:49.039Z,3.10
2019-05-07T04:09:38.328Z,3.16
2019-05-07T04:12:08.804Z,3.16
2019-05-07T04:14:58.108Z,3.22
2019-05-07T04:17:47.402Z,3.24
2019-05-07T04:20:18.209Z,3.28
2019-05-07T04:23:07.487Z,3.33
2019-05-07T04:28:54.128Z,3.43
2019-05-07T04:31:37.000Z,3.43
2019-05-07T04:34:45.568Z,3.45
2019-05-07T04:37:34.765Z,3.53
2019-05-07T04:40:05.143Z,3.61
2019-05-07T04:42:54.401Z,3.59
2019-05-07T04:45:24.651Z,3.58
2019-05-07T04:48:14.475Z,3.59
2019-05-07T04:54:03.291Z,3.60
2019-05-07T04:56:53.147Z,3.66
2019-05-07T04:59:43.103Z,3.77
2019-05-07T05:05:12.691Z,3.82
2019-05-07T05:07:43.179Z,3.80
2019-05-07T05:10:22.693Z,3.83
2019-05-07T05:13:12.934Z,3.81
2019-05-07T05:16:03.757Z,3.87
2019-05-07T05:18:53.486Z,3.93
2019-05-07T05:21:42.689Z,4.11
2019-05-07T05:24:37.645Z,4.20
2019-05-07T05:27:30.037Z,4.28
2019-05-07T05:29:59.676Z,4.37
2019-05-07T05:32:32.438Z,4.51
2019-05-07T05:35:08.568Z,4.60
2019-05-07T05:38:22.273Z,4.73
2019-05-07T05:41:16.698Z,4.85
2019-05-07T05:47:16.404Z,5.22
2019-05-07T05:56:22.887Z,5.88
2019-05-07T05:59:47.434Z,6.19
2019-05-07T06:02:44.026Z,6.46
2019-05-07T06:05:34.428Z,6.78
2019-05-07T06:08:24.094Z,7.03
2019-05-07T06:11:33.636Z,7.33
2019-05-07T06:14:23.058Z,7.52
2019-05-07T06:17:13.545Z,7.75
2019-05-07T06:20:12.144Z,7.94
2019-05-07T06:23:02.977Z,8.05
2019-05-07T06:25:33.571Z,8.20
2019-05-07T06:28:10.037Z,8.29
2019-05-07T06:30:59.346Z,8.19
2019-05-07T06:33:52.316Z,8.20
2019-05-07T06:36:22.965Z,8.36
2019-05-07T06:45:24.570Z,8.44
2019-05-07T06:51:25.289Z,8.53
2019-05-07T06:54:19.586Z,8.59
2019-05-07T06:56:51.910Z,8.61
2019-05-07T07:02:29.001Z,8.90
2019-05-07T07:05:18.133Z,9.02
2019-05-07T07:07:58.552Z,9.18
2019-05-07T07:11:09.811Z,9.16
2019-05-07T07:13:42.665Z,9.30
2019-05-07T07:16:23.494Z,9.45
2019-05-07T07:18:55.801Z,9.50
2019-05-07T07:21:25.903Z,9.49
2019-05-07T07:23:56.491Z,9.60
2019-05-07T07:32:13.175Z,9.78
2019-05-07T07:37:58.954Z,9.72
2019-05-07T07:40:52.776Z,9.93
2019-05-07T07:43:42.471Z,10.26
2019-05-07T07:46:16.675Z,10.54
2019-05-07T07:49:11.279Z,10.68
2019-05-07T07:51:57.586Z,10.76
2019-05-07T07:54:47.866Z,10.77
2019-05-07T07:57:37.011Z,10.83
2019-05-07T08:00:29.961Z,11.02
2019-05-07T08:05:39.440Z,11.56
2019-05-07T08:08:28.723Z,11.74
2019-05-07T08:11:39.787Z,11.89
2019-05-07T08:14:29.082Z,11.74
2019-05-07T08:17:02.252Z,11.55
2019-05-07T08:19:32.933Z,12.00
2019-05-07T08:22:28.803Z,13.09
2019-05-07T08:25:18.303Z,13.93
2019-05-07T08:28:23.181Z,13.81
2019-05-07T08:31:19.983Z,15.28
2019-05-07T08:33:59.268Z,15.89
2019-05-07T08:36:29.490Z,17.09
2019-05-07T08:38:59.884Z,17.39
2019-05-07T08:41:49.213Z,17.82
2019-05-07T08:44:57.407Z,18.04
2019-05-07T08:47:49.906Z,18.31
2019-05-07T08:50:48.820Z,17.04
2019-05-07T08:53:23.805Z,15.79
2019-05-07T08:55:54.329Z,14.48
2019-05-07T08:58:43.767Z,13.75
2019-05-07T09:01:33.292Z,13.24
2019-05-07T09:04:14.968Z,12.86
2019-05-07T09:06:59.463Z,12.90
2019-05-07T09:09:39.648Z,13.12
2019-05-07T09:15:59.107Z,13.41
2019-05-07T09:18:52.401Z,13.36
2019-05-07T09:21:42.910Z,13.06
2019-05-07T09:24:13.255Z,13.04
2019-05-07T09:27:02.906Z,13.03
2019-05-07T09:30:12.834Z,12.98
2019-05-07T09:35:52.952Z,13.27
2019-05-07T09:38:23.314Z,12.97
2019-05-07T09:40:56.870Z,13.09
2019-05-07T09:43:48.489Z,13.13
2019-05-07T09:46:16.965Z,13.15
2019-05-07T09:49:06.357Z,14.43
2019-05-07T09:51:55.587Z,16.18
2019-05-07T09:54:26.480Z,16.76
2019-05-07T09:57:27.325Z,16.24
2019-05-07T09:59:48.054Z,16.38
2019-05-07T10:02:18.313Z,17.05
2019-05-07T10:04:52.713Z,15.99
2019-05-07T10:07:23.995Z,16.82
2019-05-07T10:10:13.821Z,17.78
2019-05-07T10:13:42.005Z,18.70
2019-05-07T10:16:41.839Z,18.16
2019-05-07T10:22:08.674Z,15.74
2019-05-07T10:25:02.938Z,14.76
2019-05-07T10:28:12.523Z,14.94
2019-05-07T10:34:04.450Z,14.45
2019-05-07T10:36:46.091Z,14.72
2019-05-07T10:39:35.097Z,15.23
2019-05-07T10:42:28.816Z,15.90
2019-05-07T10:45:33.391Z,16.07
2019-05-07T10:48:32.047Z,15.97
2019-05-07T10:51:21.792Z,15.32
2019-05-07T10:57:19.858Z,14.32
2019-05-07T11:02:54.544Z,13.86
2019-05-07T11:05:36.098Z,13.89
2019-05-07T11:08:18.288Z,13.53
2019-05-07T11:11:00.314Z,13.75
2019-05-07T11:13:42.366Z,14.17
2019-05-07T11:16:26.006Z,14.73
2019-05-07T11:19:12.773Z,15.01
2019-05-07T11:21:54.956Z,15.21
2019-05-07T11:24:36.241Z,15.51
2019-05-07T11:27:16.393Z,15.60
2019-05-07T11:30:07.374Z,15.89
2019-05-07T11:32:39.768Z,15.71
2019-05-07T11:35:31.929Z,15.59
2019-05-07T11:38:24.982Z,16.43
2019-05-07T11:40:57.252Z,17.13
2019-05-07T11:44:05.445Z,17.87
2019-05-07T11:47:13.948Z,17.49
2019-05-07T11:50:25.524Z,17.33
2019-05-07T11:56:28.394Z,17.19
2019-05-07T11:59:22.018Z,17.02
2019-05-07T12:02:12.113Z,17.42
2019-05-07T12:05:22.561Z,17.69
2019-05-07T12:08:14.329Z,17.48
2019-05-07T12:11:03.577Z,17.51
2019-05-07T12:13:57.029Z,16.87
2019-05-07T12:16:43.911Z,17.84
2019-05-07T12:19:36.052Z,17.65
2019-05-07T12:25:19.500Z,16.36
2019-05-07T12:28:08.940Z,16.80
2019-05-07T12:30:58.510Z,16.54
2019-05-07T12:34:11.924Z,16.49
2019-05-07T12:37:01.678Z,16.55
2019-05-07T12:39:32.468Z,16.11
2019-05-07T12:42:08.549Z,15.91
2019-05-07T12:45:02.845Z,16.01
2019-05-07T12:47:53.012Z,15.61
2019-05-07T12:50:43.639Z,15.61
2019-05-07T12:53:52.464Z,15.58
2019-05-07T12:57:02.533Z,16.47
2019-05-07T12:59:54.049Z,17.41
2019-05-07T13:05:59.527Z,16.12
2019-05-07T13:08:43.242Z,15.32
2019-05-07T13:11:13.853Z,15.42
2019-05-07T13:13:44.161Z,16.11
2019-05-07T13:16:36.381Z,15.94
2019-05-07T13:23:17.491Z,20.59
2019-05-07T13:25:28.173Z,22.59
2019-05-07T13:28:18.162Z,24.04
2019-05-07T13:30:52.639Z,25.18
2019-05-07T13:33:23.879Z,25.52
2019-05-07T13:36:13.191Z,25.47
2019-05-07T13:39:05.108Z,26.35
2019-05-07T13:42:13.609Z,27.72
2019-05-07T13:45:22.454Z,28.20
2019-05-07T13:48:14.192Z,26.80
2019-05-07T13:50:48.673Z,27.91
2019-05-07T13:53:56.865Z,25.56
2019-05-07T13:56:48.890Z,25.32
2019-05-07T13:59:19.173Z,23.62
2019-05-07T14:02:25.823Z,21.39
2019-05-07T14:04:56.989Z,20.12
2019-05-07T14:07:43.054Z,18.99
2019-05-07T14:10:03.931Z,17.96
2019-05-07T14:12:37.089Z,17.49
2019-05-07T14:15:28.089Z,18.07
2019-05-07T14:18:18.937Z,20.66
2019-05-07T14:21:26.987Z,22.66
2019-05-07T14:23:57.270Z,22.40
2019-05-07T14:29:57.283Z,20.04
2019-05-07T14:32:46.494Z,21.02
2019-05-07T14:35:39.100Z,23.48
2019-05-07T14:38:52.093Z,24.93
2019-05-07T14:42:04.469Z,25.81
2019-05-07T14:45:05.886Z,26.17
2019-05-07T14:47:45.287Z,25.55
2019-05-07T14:53:24.853Z,20.52
2019-05-07T14:56:14.939Z,19.32
2019-05-07T15:02:03.639Z,20.83
2019-05-07T15:04:53.096Z,20.62
2019-05-07T15:07:23.887Z,22.11
2019-05-07T15:10:13.296Z,23.14
2019-05-07T15:13:07.800Z,23.25
2019-05-07T15:15:57.226Z,24.18
2019-05-07T15:19:05.447Z,25.83
2019-05-07T15:22:13.658Z,26.25
2019-05-07T15:25:02.888Z,26.57
2019-05-07T15:27:34.134Z,27.15
2019-05-07T15:33:44.880Z,25.86
2019-05-07T15:36:34.999Z,25.45
2019-05-07T15:39:24.396Z,24.92
2019-05-07T15:42:13.701Z,24.91
2019-05-07T15:45:04.762Z,25.70
2019-05-07T15:47:56.180Z,26.65
2019-05-07T15:53:55.007Z,25.52
2019-05-07T15:56:47.443Z,25.16
2019-05-07T15:59:36.815Z,24.48
2019-05-07T16:02:35.923Z,22.92
2019-05-07T16:07:57.282Z,20.68
2019-05-07T16:10:38.968Z,19.51
2019-05-07T16:13:39.112Z,18.96
2019-05-07T16:16:02.111Z,18.86
2019-05-07T16:19:12.635Z,18.55
2019-05-07T16:21:43.873Z,18.54
2019-05-07T16:24:33.477Z,18.30
2019-05-07T16:27:25.746Z,18.17
2019-05-07T16:36:15.774Z,17.42
2019-05-07T16:39:06.049Z,17.19
2019-05-07T16:41:57.098Z,17.02
2019-05-07T16:44:47.079Z,16.68
2019-05-07T16:47:39.534Z,16.51
2019-05-07T16:50:28.822Z,16.23
2019-05-07T16:53:37.143Z,15.94
2019-05-07T16:56:26.796Z,15.80
2019-05-07T17:05:15.292Z,15.42
2019-05-07T17:11:05.853Z,15.19
2019-05-07T17:13:55.414Z,15.32
2019-05-07T17:16:26.145Z,15.21
2019-05-07T17:19:17.967Z,15.29
2019-05-07T17:21:48.676Z,15.23
2019-05-07T17:24:19.051Z,15.15
2019-05-07T17:26:51.839Z,15.12
2019-05-07T17:29:49.140Z,15.06
2019-05-07T17:32:41.914Z,14.92
2019-05-07T17:38:09.889Z,14.61
2019-05-07T17:40:39.176Z,14.44
2019-05-07T17:43:12.320Z,14.37
2019-05-07T17:45:43.124Z,14.30
2019-05-07T17:52:15.734Z,14.12
2019-05-07T17:54:50.282Z,13.92
2019-05-07T17:57:44.821Z,13.86
2019-05-07T18:00:35.637Z,13.73
2019-05-07T18:03:35.602Z,13.59
2019-05-07T18:06:34.782Z,13.54
2019-05-07T18:09:24.114Z,13.40
2019-05-07T18:11:56.547Z,13.29
2019-05-07T18:14:49.858Z,13.15
2019-05-07T18:17:42.069Z,13.13
2019-05-07T18:20:32.812Z,13.13
2019-05-07T18:23:16.677Z,13.05
2019-05-07T18:25:44.461Z,12.97
2019-05-07T18:28:17.916Z,12.97
2019-05-07T18:30:54.735Z,12.85
2019-05-07T18:33:41.752Z,12.76
2019-05-07T18:36:12.599Z,12.66
2019-05-07T18:38:44.618Z,12.58
2019-05-07T18:41:17.703Z,12.46
2019-05-07T18:43:52.071Z,12.33
2019-05-07T18:46:24.197Z,12.27
2019-05-07T18:48:55.625Z,12.23
2019-05-07T18:51:32.194Z,12.26
2019-05-07T18:54:02.730Z,12.06
2019-05-07T18:56:52.876Z,11.87
2019-05-07T18:59:43.451Z,11.75
2019-05-07T19:02:16.991Z,11.59
2019-05-07T19:04:47.601Z,11.26
2019-05-07T19:07:22.817Z,11.05
2019-05-07T19:10:35.140Z,10.99
2019-05-07T19:13:33.749Z,10.94
2019-05-07T19:16:27.631Z,10.87
2019-05-07T19:19:16.766Z,10.68
2019-05-07T19:22:06.228Z,10.52
2019-05-07T19:28:12.759Z,10.54
2019-05-07T19:30:43.940Z,10.48
2019-05-07T19:33:33.191Z,10.41
2019-05-07T19:36:22.517Z,10.31
2019-05-07T19:39:12.635Z,10.21
2019-05-07T19:42:06.292Z,10.12
2019-05-07T19:48:00.091Z,10.04
2019-05-07T19:51:08.412Z,9.95
2019-05-07T19:53:43.823Z,9.85
2019-05-07T19:56:33.462Z,9.72
2019-05-07T19:59:09.266Z,9.68
2019-05-07T20:01:44.750Z,9.60
2019-05-07T20:04:15.142Z,9.56
2019-05-07T20:07:07.930Z,9.50
2019-05-07T20:09:49.512Z,9.53
2019-05-07T20:12:33.597Z,9.53
2019-05-07T20:15:06.838Z,9.43
2019-05-07T20:17:42.164Z,9.41
2019-05-07T20:20:36.696Z,9.36
2019-05-07T20:26:36.045Z,9.09
2019-05-07T20:29:27.233Z,9.02
2019-05-07T20:32:04.247Z,8.96
2019-05-07T20:34:53.622Z,8.89
2019-05-07T20:38:16.240Z,8.79
2019-05-07T20:40:55.784Z,8.82
2019-05-07T20:43:28.180Z,8.73
2019-05-07T20:46:20.577Z,8.70
2019-05-07T20:48:52.609Z,8.62
2019-05-07T20:51:52.777Z,8.55
2019-05-07T20:54:46.049Z,8.43
2019-05-07T20:57:39.256Z,8.40
2019-05-07T21:00:29.782Z,8.39
2019-05-07T21:05:55.049Z,8.30
2019-05-07T21:08:25.936Z,8.23
2019-05-07T21:11:17.936Z,8.20
2019-05-07T21:13:52.333Z,8.21
2019-05-07T21:16:42.538Z,8.19
2019-05-07T21:19:33.088Z,8.16
2019-05-07T21:22:23.346Z,8.08
2019-05-07T21:25:41.495Z,8.07
2019-05-07T21:27:52.886Z,8.04
2019-05-07T21:30:42.689Z,8.05
2019-05-07T21:36:05.122Z,7.95
2019-05-07T21:39:02.160Z,7.88
2019-05-07T21:41:55.121Z,7.82
2019-05-07T21:44:44.971Z,7.79
2019-05-07T21:50:56.525Z,7.70
2019-05-07T21:59:43.200Z,7.67
2019-05-07T22:02:17.832Z,7.64
2019-05-07T22:05:11.781Z,7.53
2019-05-07T22:08:01.823Z,7.48
2019-05-07T22:10:51.500Z,7.43
2019-05-07T22:13:43.479Z,7.44
2019-05-07T22:16:37.163Z,7.38
2019-05-07T22:19:26.719Z,7.36
2019-05-07T22:22:38.479Z,7.32
2019-05-07T22:25:46.704Z,7.38
2019-05-07T22:28:17.193Z,7.37
2019-05-07T22:34:02.200Z,7.28
2019-05-07T22:36:52.117Z,7.23
2019-05-07T22:39:43.816Z,7.22
2019-05-07T22:42:53.671Z,7.21
2019-05-07T22:45:42.994Z,7.28
2019-05-07T22:48:32.587Z,7.26
2019-05-07T22:52:02.188Z,6.55
2019-05-07T22:54:32.185Z,7.29
2019-05-07T22:57:42.044Z,7.29
2019-05-07T23:00:51.223Z,7.28
2019-05-07T23:03:23.186Z,7.29
2019-05-07T23:06:13.634Z,7.37
2019-05-07T23:08:45.054Z,7.41
2019-05-07T23:11:37.124Z,7.46
2019-05-07T23:14:13.988Z,7.50
2019-05-07T23:17:22.052Z,7.54
2019-05-07T23:26:00.391Z,7.49
2019-05-07T23:28:32.325Z,7.45
2019-05-07T23:31:22.900Z,7.42
2019-05-07T23:34:32.724Z,7.40
2019-05-07T23:41:14.777Z,7.42
2019-05-07T23:44:04.291Z,7.38
2019-05-07T23:50:23.960Z,7.35
2019-05-07T23:58:48.254Z,7.21
